Time;durP1;ratioP1;P1;durP2;ratioP2;P2;SDS_P1;SDS_P2;PMS_P1;PMS_P2;Temp;Humidity;BMP_temperature;BMP_pressure;BME280_temperature;BME280_humidity;BME280_pressure;Samples;Min_cycle;Max_cycle;Signal;HPM_P1;HPM_P2
2023/10/22 00:00:47;;;;;;;1.25;0.10;;;;;;;9.54;50.76;99835.03;4974226;28;20605;-72
2023/10/22 00:03:12;;;;;;;1.52;0.17;;;;;;;9.85;50.03;99829.09;4977273;28;20057;-72
2023/10/22 00:05:38;;;;;;;3.22;0.20;;;;;;;9.85;49.98;99828.25;4981188;28;20136;-72
2023/10/22 00:08:04;;;;;;;4.95;0.50;;;;;;;9.82;50.18;99824.03;4980978;28;20096;-72
2023/10/22 00:10:29;;;;;;;1.85;0.30;;;;;;;9.86;49.87;99827.34;4973680;28;20096;-71
2023/10/22 00:12:54;;;;;;;0.57;0.10;;;;;;;9.92;49.97;99824.38;4978066;28;20066;-72
2023/10/22 00:15:20;;;;;;;2.08;0.20;;;;;;;9.78;50.12;99828.53;4979775;28;20270;-72
2023/10/22 00:17:48;;;;;;;4.68;0.30;;;;;;;9.88;49.82;99825.47;4975065;28;20050;-70
2023/10/22 00:20:14;;;;;;;3.35;0.22;;;;;;;9.87;50.03;99823.78;4974891;28;20728;-71
2023/10/22 00:22:39;;;;;;;3.15;0.32;;;;;;;9.95;49.98;99827.69;4979590;28;20054;-70
2023/10/22 00:25:06;;;;;;;4.25;0.20;;;;;;;9.72;49.93;99823.66;4976727;28;20911;-71
2023/10/22 00:27:35;;;;;;;5.32;0.63;;;;;;;9.87;49.66;99821.19;4976258;28;20618;-72
2023/10/22 00:30:00;;;;;;;1.08;0.15;;;;;;;10.07;49.10;99826.16;4977174;28;20033;-72
2023/10/22 00:32:26;;;;;;;4.32;0.13;;;;;;;9.94;49.52;99827.75;4975333;28;20065;-72
2023/10/22 00:34:52;;;;;;;6.05;0.40;;;;;;;10.10;49.48;99823.41;4985551;28;20026;-72
2023/10/22 00:37:17;;;;;;;4.95;0.20;;;;;;;10.07;49.44;99834.00;4975974;28;20046;-72
2023/10/22 00:39:43;;;;;;;3.25;0.30;;;;;;;9.82;50.03;99828.44;4962786;28;20091;-71
2023/10/22 00:42:12;;;;;;;3.97;0.52;;;;;;;9.56;50.47;99831.44;4983647;28;20138;-72
2023/10/22 00:44:37;;;;;;;1.55;0.20;;;;;;;9.43;50.75;99829.53;4978861;28;20381;-69
2023/10/22 00:47:04;;;;;;;1.77;0.20;;;;;;;9.36;50.93;99832.47;4980122;28;20044;-68
2023/10/22 00:49:29;;;;;;;4.13;0.20;;;;;;;9.54;50.38;99830.69;4983857;28;20038;-68
2023/10/22 00:51:56;;;;;;;1.13;0.32;;;;;;;9.51;50.40;99830.00;4985900;28;20573;-68
2023/10/22 00:54:24;;;;;;;3.15;0.40;;;;;;;9.25;51.20;99826.97;4982377;28;20053;-69
2023/10/22 00:56:51;;;;;;;4.80;0.20;;;;;;;8.87;52.09;99829.72;4978248;28;20066;-68
2023/10/22 00:59:18;;;;;;;5.32;0.30;;;;;;;9.00;51.71;99829.13;4988883;28;20124;-68
2023/10/22 01:01:44;;;;;;;1.75;0.45;;;;;;;9.12;51.08;99833.72;4976864;28;20038;-68
2023/10/22 01:04:10;;;;;;;1.48;0.30;;;;;;;9.14;51.15;99811.88;4985839;28;20037;-69
2023/10/22 01:06:36;;;;;;;6.10;0.50;;;;;;;9.11;51.53;99826.84;4985139;28;20034;-70
2023/10/22 01:09:02;;;;;;;1.90;0.20;;;;;;;9.18;51.01;99820.38;4980116;28;20056;-68
2023/10/22 01:11:28;;;;;;;1.60;0.30;;;;;;;9.02;51.57;99806.44;4975797;28;20058;-68
2023/10/22 01:13:55;;;;;;;2.22;0.40;;;;;;;9.18;50.96;99807.34;4980175;28;20081;-68
2023/10/22 01:16:21;;;;;;;2.78;0.40;;;;;;;9.11;51.03;99805.97;4983207;28;20153;-68
2023/10/22 01:18:47;;;;;;;1.95;0.15;;;;;;;8.78;51.97;99809.34;4974072;28;20497;-69
2023/10/22 01:21:12;;;;;;;6.80;0.60;;;;;;;9.04;51.54;99807.22;4979115;28;20048;-69
2023/10/22 01:23:38;;;;;;;1.52;0.20;;;;;;;8.98;51.63;99811.81;4975175;28;20585;-70
2023/10/22 01:26:06;;;;;;;3.22;0.10;;;;;;;8.89;51.69;99814.03;4979188;28;20061;-69
2023/10/22 01:28:33;;;;;;;4.63;0.43;;;;;;;9.14;51.04;99814.50;4980698;28;20142;-69
2023/10/22 01:30:58;;;;;;;1.92;0.40;;;;;;;8.76;51.93;99817.25;4972701;28;20058;-69
2023/10/22 01:33:24;;;;;;;3.70;0.50;;;;;;;8.87;51.76;99814.09;4962650;28;20073;-68
2023/10/22 01:35:49;;;;;;;1.60;0.17;;;;;;;9.05;50.93;99821.91;4958845;28;20057;-68
2023/10/22 01:38:15;;;;;;;2.00;0.20;;;;;;;8.98;51.27;99817.03;4958959;28;20054;-67
2023/10/22 01:40:40;;;;;;;1.48;0.10;;;;;;;9.01;51.42;99826.47;4959846;28;20058;-68
2023/10/22 01:43:06;;;;;;;4.82;0.40;;;;;;;8.98;51.12;99830.06;4963125;28;20058;-67
2023/10/22 01:45:31;;;;;;;1.52;0.30;;;;;;;9.07;51.20;99826.13;4956327;28;20035;-68
2023/10/22 01:47:57;;;;;;;2.38;1.05;;;;;;;9.04;51.20;99825.47;4964214;28;20042;-68
2023/10/22 01:50:23;;;;;;;2.25;0.10;;;;;;;8.92;51.48;99824.31;4957429;28;20473;-67
2023/10/22 01:52:49;;;;;;;1.30;0.17;;;;;;;9.06;51.12;99821.00;4963537;28;20217;-69
2023/10/22 01:55:15;;;;;;;3.67;0.43;;;;;;;8.74;52.25;99818.25;4956868;28;20030;-68
2023/10/22 01:57:41;;;;;;;1.77;0.13;;;;;;;8.87;51.57;99816.69;4967127;28;20045;-67
2023/10/22 02:00:10;;;;;;;1.85;0.10;;;;;;;8.92;51.34;99819.09;4983944;28;20239;-66
2023/10/22 02:02:40;;;;;;;3.88;0.20;;;;;;;8.74;51.83;99808.66;4979267;28;20041;-69
2023/10/22 02:05:06;;;;;;;0.98;0.10;;;;;;;9.26;50.70;99815.63;4993232;28;20049;-69
2023/10/22 02:07:36;;;;;;;4.22;0.30;;;;;;;9.16;50.94;99810.03;4977427;28;20053;-69
2023/10/22 02:10:02;;;;;;;4.68;0.40;;;;;;;9.11;51.12;99805.97;4980211;28;20124;-64
2023/10/22 02:12:28;;;;;;;3.22;0.40;;;;;;;9.27;50.66;99812.09;4983367;28;20100;-64
2023/10/22 02:14:54;;;;;;;4.93;0.30;;;;;;;9.19;50.65;99809.03;4983752;28;20042;-66
2023/10/22 02:17:19;;;;;;;2.72;0.20;;;;;;;9.29;50.60;99806.78;4966509;28;20743;-67
2023/10/22 02:19:45;;;;;;;3.08;0.25;;;;;;;9.23;50.68;99800.16;4976491;28;20049;-66
2023/10/22 02:22:12;;;;;;;5.30;0.35;;;;;;;8.95;51.36;99811.97;4975642;28;20117;-66
2023/10/22 02:24:38;;;;;;;1.13;0.50;;;;;;;9.21;50.71;99808.94;4978101;28;20392;-67
2023/10/22 02:27:03;;;;;;;1.95;0.10;;;;;;;9.23;50.89;99815.78;4968162;28;20030;-67
2023/10/22 02:29:29;;;;;;;1.95;0.30;;;;;;;9.19;50.70;99814.25;4960867;28;20042;-66
2023/10/22 02:31:54;;;;;;;1.65;0.38;;;;;;;9.13;50.99;99810.19;4964460;28;20405;-66
2023/10/22 02:34:20;;;;;;;1.27;0.20;;;;;;;9.26;50.73;99799.97;4978510;28;20357;-67
2023/10/22 02:36:45;;;;;;;1.60;0.17;;;;;;;8.75;51.62;99805.13;4979772;28;20038;-67
2023/10/22 02:39:12;;;;;;;1.15;0.20;;;;;;;9.13;50.88;99809.34;4983727;28;20038;-66
2023/10/22 02:41:37;;;;;;;1.85;0.20;;;;;;;9.07;50.94;99813.09;4976279;28;20037;-64
2023/10/22 02:44:04;;;;;;;2.58;0.20;;;;;;;8.97;50.99;99815.34;4988837;28;20044;-67
2023/10/22 02:46:30;;;;;;;3.53;0.20;;;;;;;9.03;50.86;99819.41;4976349;28;20171;-67
2023/10/22 02:48:55;;;;;;;3.30;0.22;;;;;;;9.17;50.80;99801.28;4972006;28;20485;-66
2023/10/22 02:51:22;;;;;;;1.25;0.20;;;;;;;9.22;50.66;99808.03;4980359;28;20129;-65
2023/10/22 02:53:48;;;;;;;2.00;0.17;;;;;;;9.09;50.88;99805.22;4981005;28;20057;-67
2023/10/22 02:56:13;;;;;;;0.90;0.10;;;;;;;9.16;50.86;99815.25;4981520;28;20026;-66
2023/10/22 02:58:40;;;;;;;2.90;0.20;;;;;;;9.32;50.59;99814.44;4981699;28;20129;-66
2023/10/22 03:01:07;;;;;;;2.00;0.28;;;;;;;9.30;50.41;99817.16;4979855;28;20030;-66
2023/10/22 03:03:38;;;;;;;4.65;1.05;;;;;;;9.45;50.35;99814.66;4977478;28;20049;-66
2023/10/22 03:06:09;;;;;;;2.70;0.60;;;;;;;9.51;50.18;99809.97;4969071;28;20040;-66
2023/10/22 03:08:36;;;;;;;4.18;0.13;;;;;;;9.28;50.65;99818.16;4976619;28;20331;-65
2023/10/22 03:11:02;;;;;;;6.95;0.43;;;;;;;9.23;50.97;99813.19;4979378;28;20045;-65
2023/10/22 03:13:29;;;;;;;2.78;0.20;;;;;;;9.22;50.65;99813.25;4990988;28;20548;-67
2023/10/22 03:15:55;;;;;;;2.67;0.10;;;;;;;9.42;50.33;99820.06;4977292;28;21260;-65
2023/10/22 03:18:20;;;;;;;2.88;0.20;;;;;;;9.36;50.72;99813.38;4975089;28;20046;-66
2023/10/22 03:20:46;;;;;;;3.30;0.38;;;;;;;9.50;50.13;99812.66;4982923;28;20034;-66
2023/10/22 03:23:12;;;;;;;4.70;0.28;;;;;;;9.67;49.60;99815.22;4968447;28;20172;-66
2023/10/22 03:25:39;;;;;;;3.53;0.38;;;;;;;9.62;50.21;99822.44;4982277;28;20064;-66
2023/10/22 03:28:06;;;;;;;3.95;0.40;;;;;;;9.43;50.30;99824.34;4982079;28;20093;-65
2023/10/22 03:30:37;;;;;;;5.43;0.10;;;;;;;9.67;49.95;99825.66;4978238;28;20464;-65
2023/10/22 03:33:03;;;;;;;0.82;0.20;;;;;;;9.55;50.36;99827.16;4985692;28;20034;-65
2023/10/22 03:35:28;;;;;;;0.38;0.00;;;;;;;9.80;49.76;99825.88;4974507;28;20136;-66
2023/10/22 03:37:55;;;;;;;2.08;0.25;;;;;;;9.73;49.85;99830.56;4975860;28;20038;-69
2023/10/22 03:40:21;;;;;;;2.10;0.10;;;;;;;9.96;49.72;99828.50;4978165;28;20497;-69
2023/10/22 03:42:47;;;;;;;4.28;0.20;;;;;;;9.47;50.38;99834.53;4979556;28;20116;-68
2023/10/22 03:45:13;;;;;;;1.55;0.47;;;;;;;9.88;49.88;99834.16;4976564;28;20137;-69
2023/10/22 03:47:39;;;;;;;1.88;0.13;;;;;;;9.87;49.69;99832.47;4981754;28;20479;-69
2023/10/22 03:50:05;;;;;;;0.52;0.10;;;;;;;10.02;49.27;99826.41;4991162;28;20676;-68
2023/10/22 03:52:30;;;;;;;1.23;0.30;;;;;;;10.05;49.66;99828.00;4977416;28;20046;-68
2023/10/22 03:54:56;;;;;;;1.33;0.32;;;;;;;10.08;49.51;99835.69;4982328;28;20963;-68
2023/10/22 03:57:22;;;;;;;2.05;0.15;;;;;;;9.97;49.62;99822.38;4976000;28;20046;-67
2023/10/22 03:59:48;;;;;;;1.33;0.10;;;;;;;10.15;49.59;99823.16;4980933;28;20038;-67
2023/10/22 04:02:14;;;;;;;3.58;0.20;;;;;;;10.19;49.44;99829.84;4978089;28;20484;-68
2023/10/22 04:04:40;;;;;;;1.20;0.10;;;;;;;9.99;50.01;99825.72;4974324;28;20169;-67
2023/10/22 04:07:05;;;;;;;2.50;0.10;;;;;;;10.16;49.81;99825.66;4976636;28;20073;-68
2023/10/22 04:09:31;;;;;;;2.30;0.30;;;;;;;10.08;49.78;99817.41;4978555;28;20129;-67
2023/10/22 04:11:56;;;;;;;3.50;1.17;;;;;;;9.97;49.73;99827.59;4974527;28;22574;-69
2023/10/22 04:14:22;;;;;;;2.50;0.10;;;;;;;10.34;49.13;99822.94;4982620;28;20104;-68
2023/10/22 04:16:49;;;;;;;1.33;0.10;;;;;;;10.27;49.19;99825.06;4977149;28;20604;-72
2023/10/22 04:19:15;;;;;;;1.92;0.20;;;;;;;10.23;49.44;99828.75;4980721;28;20405;-73
2023/10/22 04:21:41;;;;;;;2.00;0.28;;;;;;;10.17;49.64;99832.56;4979884;28;20048;-72
2023/10/22 04:24:07;;;;;;;4.38;0.30;;;;;;;10.27;49.41;99825.06;4983778;28;20048;-72
2023/10/22 04:26:33;;;;;;;3.03;0.40;;;;;;;10.22;49.59;99827.94;4982229;28;20149;-68
2023/10/22 04:28:58;;;;;;;3.83;0.22;;;;;;;10.20;49.67;99835.00;4977883;28;20053;-69
2023/10/22 04:31:23;;;;;;;2.97;0.22;;;;;;;10.15;49.83;99831.81;4983842;28;20070;-68
2023/10/22 04:33:49;;;;;;;1.42;0.10;;;;;;;10.12;50.03;99836.34;4977923;28;20050;-69
2023/10/22 04:36:16;;;;;;;5.65;0.20;;;;;;;9.90;50.42;99836.66;4973034;28;20035;-70
2023/10/22 04:38:42;;;;;;;2.60;0.20;;;;;;;10.14;50.11;99830.09;4977282;28;20088;-68
2023/10/22 04:41:11;;;;;;;3.30;0.28;;;;;;;9.94;50.46;99833.81;4990073;28;20026;-68
2023/10/22 04:43:36;;;;;;;7.05;0.60;;;;;;;10.14;50.25;99834.50;4977319;28;20112;-68
2023/10/22 04:46:02;;;;;;;6.30;0.10;;;;;;;10.36;49.55;99835.00;4978557;28;20533;-68
2023/10/22 04:48:27;;;;;;;2.85;0.43;;;;;;;10.28;49.79;99832.00;4984145;28;20805;-68
2023/10/22 04:50:53;;;;;;;1.65;0.57;;;;;;;10.26;49.94;99828.63;4981066;28;20250;-69
2023/10/22 04:53:18;;;;;;;1.58;0.10;;;;;;;10.22;50.29;99837.53;4982966;28;20038;-69
2023/10/22 04:55:56;;;;;;;2.30;0.30;;;;;;;10.14;50.40;99829.28;4969157;28;20672;-68
2023/10/22 04:58:22;;;;;;;2.13;0.22;;;;;;;10.22;50.34;99840.16;4994609;28;20528;-69
2023/10/22 05:00:48;;;;;;;4.30;0.20;;;;;;;9.95;51.02;99834.66;4978137;28;20064;-67
2023/10/22 05:03:13;;;;;;;5.60;0.20;;;;;;;10.18;50.48;99842.06;4983337;28;20057;-66
2023/10/22 05:05:39;;;;;;;4.10;0.20;;;;;;;10.18;50.30;99839.47;4978217;28;20117;-70
2023/10/22 05:08:05;;;;;;;2.70;0.25;;;;;;;10.12;50.54;99842.41;4981330;28;20726;-69
2023/10/22 05:10:36;;;;;;;0.60;0.13;;;;;;;10.32;50.01;99843.09;4979473;28;20475;-70
2023/10/22 05:13:01;;;;;;;5.00;0.20;;;;;;;10.03;50.58;99845.53;4993428;28;20053;-69
2023/10/22 05:15:27;;;;;;;1.65;0.70;;;;;;;10.04;50.95;99849.00;4978765;28;20034;-68
2023/10/22 05:17:52;;;;;;;1.23;0.20;;;;;;;10.00;50.85;99838.69;4985913;28;20033;-70
2023/10/22 05:20:21;;;;;;;1.55;0.10;;;;;;;10.12;50.68;99847.63;4985688;28;20622;-69
2023/10/22 05:22:48;;;;;;;0.50;0.10;;;;;;;10.13;50.91;99846.72;4976115;28;20050;-66
2023/10/22 05:25:14;;;;;;;0.57;0.05;;;;;;;10.04;51.10;99849.84;4986425;28;20038;-67
2023/10/22 05:27:39;;;;;;;1.33;0.17;;;;;;;10.18;50.75;99847.31;4977397;28;20104;-68
2023/10/22 05:30:06;;;;;;;1.75;0.20;;;;;;;10.03;51.38;99848.13;4980364;28;20030;-69
2023/10/22 05:32:31;;;;;;;3.28;0.10;;;;;;;10.22;50.78;99854.03;4980959;28;20505;-67
2023/10/22 05:34:57;;;;;;;3.00;0.28;;;;;;;10.15;50.87;99857.09;4977145;28;20038;-68
2023/10/22 05:37:23;;;;;;;2.75;0.35;;;;;;;10.21;50.51;99859.34;4979264;28;20042;-69
2023/10/22 05:39:48;;;;;;;2.17;0.10;;;;;;;10.20;50.92;99865.50;4978882;28;20141;-67
2023/10/22 05:42:14;;;;;;;2.47;0.20;;;;;;;10.24;50.70;99872.25;4987359;28;20042;-68
2023/10/22 05:44:39;;;;;;;2.17;0.10;;;;;;;10.15;51.32;99873.59;4984374;28;20037;-68
2023/10/22 05:47:05;;;;;;;0.80;0.10;;;;;;;10.36;50.64;99884.63;4976404;28;20049;-69
2023/10/22 05:49:31;;;;;;;3.67;0.20;;;;;;;10.30;50.80;99879.72;4980659;28;20092;-67
2023/10/22 05:51:57;;;;;;;1.15;0.10;;;;;;;10.31;51.12;99884.03;4975943;28;20034;-68
2023/10/22 05:54:22;;;;;;;2.63;0.10;;;;;;;10.36;50.82;99891.63;4981419;28;20044;-66
2023/10/22 05:56:48;;;;;;;2.30;0.20;;;;;;;10.37;50.89;99888.06;4975257;28;20057;-67
2023/10/22 05:59:13;;;;;;;2.40;0.52;;;;;;;10.22;51.48;99885.38;4977513;28;20398;-68
2023/10/22 06:01:41;;;;;;;0.95;0.10;;;;;;;10.04;52.08;99896.81;4978899;28;20072;-67
2023/10/22 06:04:07;;;;;;;3.92;0.30;;;;;;;10.35;50.89;99896.00;4992872;28;20147;-68
2023/10/22 06:06:32;;;;;;;1.40;0.10;;;;;;;9.98;52.62;99897.13;4980330;28;20042;-68
2023/10/22 06:08:58;;;;;;;4.38;0.20;;;;;;;10.14;52.75;99892.78;4976336;28;20041;-68
2023/10/22 06:11:23;;;;;;;1.13;0.15;;;;;;;10.02;53.45;99904.72;4979597;28;20026;-67
2023/10/22 06:13:49;;;;;;;3.47;0.20;;;;;;;9.86;54.75;99903.88;4975255;28;20108;-68
2023/10/22 06:16:14;;;;;;;0.68;0.10;;;;;;;9.88;55.96;99919.41;4981063;28;20066;-67
2023/10/22 06:18:40;;;;;;;5.20;0.43;;;;;;;9.77;56.60;99907.75;4980307;28;20045;-68
2023/10/22 06:21:12;;;;;;;1.98;0.20;;;;;;;9.59;57.44;99921.75;4978587;28;20397;-67
2023/10/22 06:23:38;;;;;;;0.70;0.10;;;;;;;9.43;58.46;99920.84;4980466;28;20128;-68
2023/10/22 06:26:04;;;;;;;0.45;0.10;;;;;;;9.27;59.15;99921.59;4980888;28;20038;-68
2023/10/22 06:28:30;;;;;;;1.00;0.55;;;;;;;9.38;59.26;99923.66;4981670;28;20058;-67
2023/10/22 06:31:05;;;;;;;3.03;0.25;;;;;;;9.43;59.49;99933.88;4978486;28;20523;-68
2023/10/22 06:33:32;;;;;;;0.63;0.10;;;;;;;9.32;59.47;99943.09;4980487;28;20069;-67
2023/10/22 06:35:58;;;;;;;0.70;0.15;;;;;;;9.15;60.66;99933.47;4981553;28;20030;-68
2023/10/22 06:38:23;;;;;;;0.85;0.10;;;;;;;9.37;60.11;99942.88;4979177;28;20086;-68
2023/10/22 06:40:49;;;;;;;1.55;0.20;;;;;;;9.39;60.08;99946.25;4976519;28;20297;-67
2023/10/22 06:43:15;;;;;;;0.40;0.10;;;;;;;9.10;61.17;99951.13;4977161;28;20464;-66
2023/10/22 06:45:42;;;;;;;0.90;0.15;;;;;;;9.25;60.69;99946.91;4976777;28;20066;-67
2023/10/22 06:48:07;;;;;;;3.28;0.30;;;;;;;9.11;61.66;99951.97;4975422;28;23564;-66
2023/10/22 06:50:33;;;;;;;0.45;0.10;;;;;;;9.34;61.08;99951.69;4982802;28;20180;-67
2023/10/22 06:52:59;;;;;;;0.52;0.20;;;;;;;9.28;61.40;99956.38;4975703;28;20425;-67
2023/10/22 06:55:24;;;;;;;1.55;0.17;;;;;;;9.03;62.25;99954.94;4976813;28;20065;-66
2023/10/22 06:57:50;;;;;;;1.48;0.13;;;;;;;9.13;62.24;99957.94;5003891;28;20129;-65
2023/10/22 07:00:16;;;;;;;0.52;0.13;;;;;;;9.01;62.73;99955.91;4976149;28;20153;-68
2023/10/22 07:02:43;;;;;;;2.75;0.20;;;;;;;9.06;62.50;99961.78;4969193;28;20591;-68
2023/10/22 07:05:10;;;;;;;3.20;0.30;;;;;;;8.98;63.29;99972.53;4956318;28;20468;-68
2023/10/22 07:07:41;;;;;;;0.60;0.40;;;;;;;9.30;62.10;99962.34;4957427;28;20045;-67
2023/10/22 07:10:09;;;;;;;1.90;0.90;;;;;;;9.16;62.37;99965.59;4955433;28;20034;-68
2023/10/22 07:12:34;;;;;;;2.25;0.20;;;;;;;9.18;62.34;99977.63;4961303;28;20042;-69
2023/10/22 07:15:00;;;;;;;0.57;0.10;;;;;;;9.19;62.95;99981.13;4971176;28;20698;-69
2023/10/22 07:17:25;;;;;;;1.67;0.22;;;;;;;9.31;62.20;99980.50;4986654;28;20058;-68
2023/10/22 07:19:51;;;;;;;0.65;0.20;;;;;;;9.33;62.34;99983.88;4976650;28;20092;-68
2023/10/22 07:22:16;;;;;;;0.95;0.15;;;;;;;9.46;62.07;99993.72;4977269;28;20042;-68
2023/10/22 07:24:42;;;;;;;1.95;0.25;;;;;;;9.50;61.97;99996.09;4979024;28;20520;-68
2023/10/22 07:27:07;;;;;;;0.98;0.17;;;;;;;9.42;62.69;99995.63;4974210;28;20049;-68
2023/10/22 07:29:33;;;;;;;0.50;0.20;;;;;;;9.48;62.26;99994.50;4982158;28;20432;-68
2023/10/22 07:31:58;;;;;;;0.65;0.45;;;;;;;9.12;63.92;100008.38;4975127;28;20029;-69
2023/10/22 07:34:24;;;;;;;1.50;0.68;;;;;;;9.19;63.27;100001.97;4980217;28;20440;-66
2023/10/22 07:36:49;;;;;;;1.42;0.50;;;;;;;9.18;64.15;100010.69;4976083;28;20034;-67
2023/10/22 07:39:15;;;;;;;0.55;0.20;;;;;;;9.23;63.76;100023.50;4991075;28;20034;-66
2023/10/22 07:41:40;;;;;;;0.40;0.20;;;;;;;9.49;63.10;100017.03;4976013;28;20061;-66
2023/10/22 07:44:06;;;;;;;0.57;0.10;;;;;;;9.65;62.26;100020.56;4976313;28;20054;-65
2023/10/22 07:46:31;;;;;;;2.33;0.20;;;;;;;9.29;63.46;100026.66;4970357;28;20133;-66
2023/10/22 07:48:57;;;;;;;0.40;0.15;;;;;;;9.43;63.28;100027.75;4972737;28;20038;-67
2023/10/22 07:51:25;;;;;;;0.43;0.15;;;;;;;8.91;65.88;100028.50;4984988;28;20518;-66
2023/10/22 07:53:50;;;;;;;0.40;0.10;;;;;;;9.10;65.05;100036.31;4977670;28;20050;-69
2023/10/22 07:56:18;;;;;;;0.70;0.30;;;;;;;9.31;64.48;100030.06;4977199;28;20037;-68
2023/10/22 07:58:43;;;;;;;0.45;0.17;;;;;;;9.27;64.03;100048.53;4974563;28;20042;-66
2023/10/22 08:01:09;;;;;;;0.43;0.30;;;;;;;8.49;66.49;100048.56;4972656;28;20272;-66
2023/10/22 08:03:35;;;;;;;0.32;0.10;;;;;;;8.33;67.86;100060.56;4973783;28;20113;-69
2023/10/22 08:06:02;;;;;;;0.38;0.10;;;;;;;8.33;67.37;100073.59;4970342;28;20108;-68
2023/10/22 08:08:27;;;;;;;0.20;0.08;;;;;;;8.73;65.80;100082.28;4971551;28;20061;-65
2023/10/22 08:10:57;;;;;;;0.20;0.00;;;;;;;8.39;66.61;100088.13;4974601;28;20337;-67
2023/10/22 08:13:23;;;;;;;0.47;0.08;;;;;;;8.71;65.19;100104.97;4976955;28;20125;-67
2023/10/22 08:15:49;;;;;;;1.27;0.10;;;;;;;8.58;66.11;100109.81;4972539;28;20049;-67
2023/10/22 08:18:15;;;;;;;1.02;0.10;;;;;;;8.60;66.22;100112.38;4972961;28;20046;-67
2023/10/22 08:20:40;;;;;;;1.15;0.35;;;;;;;8.66;65.71;100125.13;4975923;28;20205;-66
2023/10/22 08:23:06;;;;;;;1.50;0.10;;;;;;;8.25;67.24;100119.94;4973990;28;20056;-66
2023/10/22 08:25:31;;;;;;;0.47;0.22;;;;;;;8.08;67.79;100131.06;4983809;28;20144;-67
2023/10/22 08:27:57;;;;;;;0.17;0.10;;;;;;;8.59;65.96;100136.75;4971915;28;20042;-67
2023/10/22 08:30:22;;;;;;;2.45;0.10;;;;;;;8.25;66.99;100132.94;4982625;28;20040;-68
2023/10/22 08:32:48;;;;;;;1.10;0.20;;;;;;;8.45;66.05;100145.13;4979547;28;20046;-67
2023/10/22 08:35:14;;;;;;;1.08;0.17;;;;;;;8.67;65.41;100145.91;4989252;28;20444;-69
2023/10/22 08:37:41;;;;;;;3.33;0.20;;;;;;;8.39;66.03;100151.44;4981727;28;20615;-67
2023/10/22 08:40:08;;;;;;;5.47;0.22;;;;;;;8.55;66.16;100165.50;4972618;28;20040;-66
2023/10/22 08:42:35;;;;;;;1.10;0.30;;;;;;;8.96;64.45;100169.84;4978071;28;20085;-68
2023/10/22 08:45:02;;;;;;;2.17;0.10;;;;;;;8.96;64.58;100168.13;4973673;28;20038;-66
2023/10/22 08:47:28;;;;;;;2.42;0.20;;;;;;;8.18;66.54;100170.56;4984427;28;20068;-69
2023/10/22 08:49:56;;;;;;;1.27;0.10;;;;;;;8.41;66.21;100177.44;4977179;28;20137;-68
2023/10/22 08:52:22;;;;;;;0.90;0.13;;;;;;;8.67;64.89;100189.34;4975305;28;20125;-67
2023/10/22 08:54:48;;;;;;;2.88;0.13;;;;;;;8.15;66.52;100205.38;4978073;28;20077;-68
2023/10/22 08:57:15;;;;;;;1.67;0.10;;;;;;;8.32;66.17;100202.09;4972957;28;20042;-69
2023/10/22 08:59:41;;;;;;;1.58;0.40;;;;;;;8.15;66.08;100211.44;4977287;28;20057;-69
2023/10/22 09:02:10;;;;;;;6.38;0.40;;;;;;;8.52;64.77;100220.34;4972375;28;20041;-68
2023/10/22 09:04:36;;;;;;;0.70;0.20;;;;;;;8.17;66.11;100221.78;4985860;28;20038;-66
2023/10/22 09:07:02;;;;;;;2.60;0.30;;;;;;;8.67;64.69;100228.41;4976027;28;20476;-67
2023/10/22 09:09:38;;;;;;;3.22;0.60;;;;;;;8.73;64.33;100230.78;4980296;28;20042;-69
2023/10/22 09:12:08;;;;;;;9.10;0.90;;;;;;;8.49;65.15;100238.69;4977957;28;20072;-67
2023/10/22 09:14:34;;;;;;;4.22;0.60;;;;;;;8.70;64.23;100239.56;4980275;28;20031;-69
2023/10/22 09:17:17;;;;;;;2.15;0.40;;;;;;;9.24;62.90;100239.88;4977463;28;20161;-66
2023/10/22 09:19:51;;;;;;;0.90;0.30;;;;;;;8.68;64.08;100248.34;4980753;28;20038;-69
2023/10/22 09:22:25;;;;;;;3.08;0.50;;;;;;;8.37;63.71;100247.00;4993694;28;20046;-67
2023/10/22 09:24:55;;;;;;;1.75;0.43;;;;;;;8.55;64.14;100250.63;5011795;28;20202;-66
2023/10/22 09:27:28;;;;;;;5.25;0.40;;;;;;;9.38;62.42;100263.56;4971372;28;20118;-65
2023/10/22 09:29:56;;;;;;;3.08;0.40;;;;;;;9.21;62.88;100268.69;4961117;28;20038;-65
2023/10/22 09:32:21;;;;;;;1.90;0.38;;;;;;;8.80;62.84;100266.09;4957804;28;20078;-67
2023/10/22 09:34:47;;;;;;;7.25;0.40;;;;;;;9.34;62.05;100264.63;4962724;28;20053;-67
2023/10/22 09:37:12;;;;;;;2.97;0.65;;;;;;;9.74;60.71;100280.22;4958959;28;20035;-67
2023/10/22 09:39:43;;;;;;;1.85;0.47;;;;;;;9.99;60.01;100273.00;4967784;28;20108;-67
2023/10/22 09:42:09;;;;;;;0.75;0.28;;;;;;;9.58;60.20;100282.69;4954701;28;20043;-66
2023/10/22 09:44:40;;;;;;;6.70;0.30;;;;;;;9.69;60.11;100282.22;4962906;28;20035;-66
2023/10/22 09:47:07;;;;;;;4.30;0.50;;;;;;;9.87;59.85;100280.56;4953314;28;20524;-66
2023/10/22 09:49:34;;;;;;;1.88;0.38;;;;;;;9.42;61.35;100294.75;4962449;28;20031;-68
2023/10/22 09:52:06;;;;;;;3.90;0.43;;;;;;;9.63;59.43;100304.19;4961547;28;20042;-65
2023/10/22 09:54:38;;;;;;;5.43;0.40;;;;;;;9.38;60.33;100310.50;4961937;28;20038;-66
2023/10/22 09:57:15;;;;;;;6.43;0.70;;;;;;;9.33;60.35;100307.25;4954957;28;20047;-66
2023/10/22 09:59:41;;;;;;;4.80;0.77;;;;;;;9.64;59.68;100321.56;4962241;28;20436;-66
2023/10/22 10:02:15;;;;;;;1.60;0.40;;;;;;;9.88;58.83;100334.44;4963495;28;20039;-67
2023/10/22 10:04:43;;;;;;;1.75;0.20;;;;;;;9.95;58.59;100330.66;4981324;28;20104;-68
2023/10/22 10:07:09;;;;;;;1.75;0.30;;;;;;;9.43;59.79;100338.16;4964057;28;20033;-67
2023/10/22 10:09:36;;;;;;;1.98;0.65;;;;;;;10.12;58.55;100348.13;4980529;28;20129;-67
2023/10/22 10:12:08;;;;;;;2.75;0.25;;;;;;;10.33;57.98;100347.13;4974402;28;20054;-65
2023/10/22 10:14:33;;;;;;;3.55;0.35;;;;;;;9.99;58.00;100350.44;4979773;28;20203;-68
2023/10/22 10:17:02;;;;;;;4.03;0.20;;;;;;;9.88;58.81;100352.69;4984002;28;20038;-66
2023/10/22 10:19:28;;;;;;;5.75;0.52;;;;;;;10.19;58.66;100360.84;4971776;28;20033;-67
2023/10/22 10:21:54;;;;;;;5.03;0.30;;;;;;;10.04;58.43;100356.31;4979332;28;20034;-68
2023/10/22 10:24:25;;;;;;;2.08;0.52;;;;;;;10.50;57.58;100354.16;4973801;28;20092;-68
2023/10/22 10:26:56;;;;;;;3.65;0.50;;;;;;;10.34;57.82;100353.19;4979804;28;20544;-67
2023/10/22 10:29:23;;;;;;;3.70;0.30;;;;;;;10.26;57.96;100365.75;4975014;28;21426;-67
2023/10/22 10:31:51;;;;;;;1.20;0.57;;;;;;;10.01;57.92;100365.16;4979577;28;20038;-66
2023/10/22 10:34:34;;;;;;;7.20;0.30;;;;;;;10.73;56.67;100375.75;4976509;28;20029;-67
2023/10/22 10:37:18;;;;;;;3.00;0.38;;;;;;;10.03;57.72;100375.50;4977276;28;20064;-67
2023/10/22 10:39:45;;;;;;;5.10;1.42;;;;;;;10.41;57.44;100378.97;4978344;28;20030;-67
2023/10/22 10:42:12;;;;;;;2.22;0.45;;;;;;;10.60;57.20;100376.31;4973945;28;20058;-68
2023/10/22 10:44:59;;;;;;;1.27;0.40;;;;;;;10.34;57.09;100374.09;4981569;28;20585;-68
2023/10/22 10:47:24;;;;;;;2.25;0.30;;;;;;;9.65;58.54;100375.44;4962906;28;20049;-68
2023/10/22 10:50:03;;;;;;;2.10;1.20;;;;;;;10.44;56.17;100383.22;4994929;28;20124;-69
2023/10/22 10:52:38;;;;;;;3.58;0.28;;;;;;;10.76;56.02;100392.09;4978006;28;20050;-67
2023/10/22 10:55:32;;;;;;;0.90;0.30;;;;;;;11.00;54.76;100391.88;4978686;28;20471;-69
2023/10/22 10:57:59;;;;;;;1.95;0.60;;;;;;;10.42;56.44;100405.94;4984763;28;20073;-66
2023/10/22 11:00:33;;;;;;;3.22;0.70;;;;;;;10.31;56.37;100405.59;4973758;28;22021;-68
2023/10/22 11:03:02;;;;;;;1.63;0.20;;;;;;;11.06;55.60;100404.63;4975455;28;20065;-69
2023/10/22 11:05:38;;;;;;;5.22;1.05;;;;;;;10.99;54.31;100406.69;4955496;28;20038;-67
2023/10/22 11:08:10;;;;;;;3.80;0.82;;;;;;;10.99;54.58;100414.53;4957065;28;20148;-69
2023/10/22 11:10:36;;;;;;;3.17;0.35;;;;;;;11.65;53.30;100418.22;4959115;28;20053;-68
2023/10/22 11:13:04;;;;;;;3.92;0.43;;;;;;;11.49;52.23;100422.56;4973062;28;20038;-68
2023/10/22 11:15:35;;;;;;;2.25;0.20;;;;;;;11.76;51.78;100409.81;4956603;28;20092;-69
2023/10/22 11:18:09;;;;;;;0.20;0.10;;;;;;;11.57;51.08;100423.84;4975952;28;20069;-68
2023/10/22 11:20:36;;;;;;;3.50;0.28;;;;;;;11.19;51.75;100431.03;4964554;28;20137;-68
2023/10/22 11:23:02;;;;;;;3.50;0.55;;;;;;;11.53;49.88;100430.19;4957396;28;20063;-70
2023/10/22 11:25:29;;;;;;;1.23;0.10;;;;;;;11.65;49.42;100426.94;4956565;28;20260;-69
2023/10/22 11:27:55;;;;;;;3.00;0.10;;;;;;;12.36;49.22;100435.47;4967556;28;20052;-69
2023/10/22 11:30:34;;;;;;;1.52;0.10;;;;;;;13.09;47.35;100430.53;4973976;28;22234;-68
2023/10/22 11:32:59;;;;;;;4.03;0.32;;;;;;;13.32;46.70;100437.06;4978280;28;20049;-69
2023/10/22 11:35:30;;;;;;;5.70;0.40;;;;;;;13.02;45.38;100439.69;4977384;28;20189;-69